• Join FlightAware (Why Join?)
  • Login
  • US Flag 
05:53AM EST


 

Airport Tracker/Info


-or-


 

Live Flight TrackerFlight Track Log ✈ UAL3596 ✈ 31-Dec-2013 ✈ KIAD - KBGM

Flight Track Log - Related Links

Times and Time Zones

All times are in EST time to prevent confusion due to time zone crossing. See the UAL3596 flight status page for this flight to view local times or setup timezone preferences in your user account.

Time Position Orientation Groundspeed Altitude Reporting Facility
EST Latitude Longitude Course Direction KTS MPH feet Rate Location/Type
01:19PM 39.2922 -77.3105 19° North  Level Estimated
01:20PM 39.3353 -77.2917 19° North  Level Estimated
01:21PM 39.3783 -77.2729 19° North  Level Estimated
01:22PM 39.4452 -77.2437 19° North  Level Estimated
01:23PM 39.5120 -77.2144 19° North  Level Estimated
01:24PM 39.5788 -77.1850 19° North  Level Estimated
01:25PM 39.6455 -77.1556 19° North  Level Estimated
01:26PM 39.7123 -77.1262 19° North  Level Estimated
01:27PM 39.7791 -77.0967 19° North  Level Estimated
01:28PM 39.8458 -77.0671 19° North  Level Estimated
01:29PM 39.9126 -77.0375 19° North  Level Estimated
01:30PM 39.9793 -77.0078 19° North  Level Estimated
01:31PM 40.0461 -76.9781 19° North  Level Estimated
01:32PM 40.1128 -76.9483 19° North  Level Estimated
01:33PM 40.1795 -76.9184 19° North  Level Estimated
01:34PM 40.2463 -76.8885 19° North  Level Estimated
01:35PM 40.3130 -76.8586 19° North  Level Estimated
01:36PM 40.3797 -76.8285 19° North  Level Estimated
01:37PM 40.4464 -76.7984 19° North  Level Estimated
01:38PM 40.5130 -76.7683 19° North  Level Estimated
01:39PM 40.5797 -76.7381 19° North  Level Estimated
01:40PM 40.6464 -76.7078 19° North  Level Estimated
01:41PM 40.7131 -76.6775 19° North  Level Estimated
01:42PM 40.7797 -76.6471 19° North  Level Estimated
01:43PM 40.8464 -76.6167 19° North  Level Estimated
01:44PM 40.9130 -76.5861 19° North  Level Estimated
01:45PM 40.9796 -76.5556 19° North  Level Estimated
01:46PM 41.0462 -76.5249 19° North  Level Estimated
01:47PM 41.1129 -76.4942 19° North  Level Estimated
01:48PM 41.1795 -76.4635 19° North  Level Estimated
01:49PM 41.2461 -76.4326 19° North  Level Estimated
01:50PM 41.3126 -76.4018 19° North  Level Estimated
01:51PM 41.3792 -76.3708 19° North  Level Estimated
01:52PM 41.4458 -76.3398 19° North  Level Estimated
01:53PM 41.5123 -76.3087 19° North  Level Estimated
01:54PM 41.5789 -76.2776 19° North  Level Estimated
01:55PM 41.6455 -76.2464 19° North  Level Estimated
01:56PM 41.7120 -76.2151 19° North  Level Estimated
01:57PM 41.7785 -76.1838 19° North  Level Estimated
01:58PM 41.8451 -76.1524 19° North  Level Estimated
01:59PM 41.9116 -76.1209 19° North  Level Estimated
02:00PM 41.9781 -76.0894 19° North  Level Estimated
02:01PM 42.0446 -76.0578 19° North  Level Estimated
02:02PM 42.1110 -76.0261 19° North  Level Estimated
02:03PM 42.1775 -75.9944 19° North  Level Estimated
02:04PM 42.2084 -75.9796 20° North  Level Estimated
02:05PM 42.2084 -75.9796 35° Northeast  Level Estimated
02:06PM 42.2084 -75.9796 35° Northeast  Level Estimated
02:07PM 42.2084 -75.9796 35° Northeast  Level Estimated
02:08PM 42.2084 -75.9796 35° Northeast  Level Estimated
02:09PM 42.2084 -75.9796 35° Northeast  Level Estimated
02:10PM 42.2084 -75.9796 35° Northeast  Level Estimated
02:11PM 42.2084 -75.9796 35° Northeast  Level Estimated
02:12PM 42.2084 -75.9796 35° Northeast  Level Estimated
02:13PM 42.2084 -75.9796 35° Northeast  Level Estimated
02:14PM 42.2084 -75.9796 35° Northeast  Level Estimated
02:15PM 42.2084 -75.9796 35° Northeast  Level Estimated
02:16PM 42.2084 -75.9796 35° Northeast  Level Estimated